Time;durP1;ratioP1;P1;durP2;ratioP2;P2;SDS_P1;SDS_P2;PMS_P1;PMS_P2;Temp;Humidity;BMP_temperature;BMP_pressure;BME280_temperature;BME280_humidity;BME280_pressure;Samples;Min_cycle;Max_cycle;Signal;HPM_P1;HPM_P2
2022/10/25 00:00:35;;;;;;;;;;;;;;;25.79;47.15;94593.50;5046898;28;9505;-61
2022/10/25 00:03:03;;;;;;;;;;;;;;;25.81;47.30;94588.22;5030903;28;7190;-61
2022/10/25 00:05:40;;;;;;;;;;;;;;;25.82;47.36;94587.72;5059974;28;8660;-61
2022/10/25 00:08:12;;;;;;;;;;;;;;;25.82;47.24;94578.69;5047036;28;7296;-61
2022/10/25 00:10:57;;;;;;;;;;;;;;;25.79;46.99;94583.22;5032046;28;8266;-61
2022/10/25 00:13:35;;;;;;;;;;;;;;;25.77;46.94;94574.72;5033845;28;6986;-61
2022/10/25 00:16:29;;;;;;;;;;;;;;;25.78;47.82;94565.19;5039731;28;9172;-61
2022/10/25 00:18:56;;;;;;;;;;;;;;;25.79;47.14;94568.69;5046957;28;7429;-60
2022/10/25 00:21:22;;;;;;;;;;;;;;;25.80;47.48;94559.16;5031423;28;7372;-61
2022/10/25 00:23:52;;;;;;;;;;;;;;;25.80;46.82;94553.66;5029892;28;7269;-61
2022/10/25 00:26:40;;;;;;;;;;;;;;;25.79;47.26;94558.44;5026995;28;7225;-61
2022/10/25 00:29:10;;;;;;;;;;;;;;;25.79;47.65;94554.91;5060166;28;9425;-61
2022/10/25 00:32:04;;;;;;;;;;;;;;;25.79;47.67;94555.69;5031429;28;7643;-61
2022/10/25 00:34:46;;;;;;;;;;;;;;;25.76;47.63;94553.94;4966199;28;7086;-61
2022/10/25 00:37:12;;;;;;;;;;;;;;;25.76;47.52;94545.66;4971648;28;6990;-61
2022/10/25 00:39:41;;;;;;;;;;;;;;;25.78;47.46;94545.13;4958772;28;8998;-61
2022/10/25 00:42:22;;;;;;;;;;;;;;;25.75;47.40;94546.91;4959083;28;9656;-61
2022/10/25 00:44:50;;;;;;;;;;;;;;;25.77;47.23;94549.94;4957272;28;7523;-61
2022/10/25 00:47:18;;;;;;;;;;;;;;;25.78;46.74;94553.41;4964344;28;7170;-61
2022/10/25 00:53:36;;;;;;;;;;;;;;;25.77;46.76;94558.19;4933134;28;7195;-61
2022/10/25 00:56:24;;;;;;;;;;;;;;;25.77;46.90;94571.22;4933939;29;7195;-61
2022/10/25 00:59:06;;;;;;;;;;;;;;;25.74;46.74;94574.97;4933426;29;8323;-61
2022/10/25 01:01:33;;;;;;;;;;;;;;;25.74;46.87;94572.97;4923543;29;7296;-61
2022/10/25 01:04:21;;;;;;;;;;;;;;;25.72;47.47;94569.97;4919682;29;6992;-61
2022/10/25 01:07:11;;;;;;;;;;;;;;;25.72;46.67;94564.47;4926029;29;9056;-61
2022/10/25 01:09:39;;;;;;;;;;;;;;;25.73;47.46;94573.50;4934362;29;7023;-61
2022/10/25 01:12:14;;;;;;;;;;;;;;;25.72;47.19;94566.47;4945074;28;8474;-61
2022/10/25 01:14:52;;;;;;;;;;;;;;;25.71;47.03;94560.19;4971468;28;7467;-61
2022/10/25 01:17:39;;;;;;;;;;;;;;;25.70;46.84;94569.72;4967180;28;7102;-61
2022/10/25 01:20:10;;;;;;;;;;;;;;;25.68;46.87;94566.75;4954216;28;7496;-61
2022/10/25 01:22:46;;;;;;;;;;;;;;;25.69;46.74;94564.72;4968655;28;7395;-61
2022/10/25 01:25:54;;;;;;;;;;;;;;;25.67;46.75;94567.97;4960336;28;7220;-61
2022/10/25 01:28:37;;;;;;;;;;;;;;;25.68;47.21;94575.00;4971654;28;7277;-61
2022/10/25 01:31:40;;;;;;;;;;;;;;;25.68;46.72;94569.50;5018692;28;7021;-61
2022/10/25 01:34:16;;;;;;;;;;;;;;;25.68;47.14;94560.47;5046334;28;7929;-61
2022/10/25 01:36:56;;;;;;;;;;;;;;;25.68;46.92;94557.72;5026814;28;7218;-61
2022/10/25 01:39:34;;;;;;;;;;;;;;;25.67;47.32;94554.22;5015523;28;7363;-61
2022/10/25 01:42:19;;;;;;;;;;;;;;;25.66;47.23;94551.97;5048743;28;7248;-61
2022/10/25 01:45:13;;;;;;;;;;;;;;;25.65;47.01;94559.47;5048874;28;6991;-60
2022/10/25 01:47:50;;;;;;;;;;;;;;;25.66;47.43;94554.72;5028001;28;7226;-61
2022/10/25 01:50:25;;;;;;;;;;;;;;;25.65;46.71;94542.19;5035442;28;7225;-61
2022/10/25 01:53:18;;;;;;;;;;;;;;;25.64;47.80;94544.22;5032708;28;7232;-61
2022/10/25 01:56:02;;;;;;;;;;;;;;;25.62;47.69;94535.69;5037802;28;7364;-61
2022/10/25 01:58:57;;;;;;;;;;;;;;;25.64;47.08;94541.47;5028968;28;8460;-61
2022/10/25 02:01:42;;;;;;;;;;;;;;;25.64;47.20;94537.97;5028181;28;7100;-61
2022/10/25 02:04:29;;;;;;;;;;;;;;;25.63;47.66;94542.72;5047195;28;7257;-61
2022/10/25 02:07:07;;;;;;;;;;;;;;;25.62;47.00;94541.19;5033853;28;7243;-61
2022/10/25 02:10:27;;;;;;;;;;;;;;;25.63;47.44;94544.72;5034302;28;7172;-61
2022/10/25 02:13:17;;;;;;;;;;;;;;;25.62;46.82;94545.97;4968438;28;7236;-61
2022/10/25 02:16:06;;;;;;;;;;;;;;;25.62;47.14;94534.97;4949804;28;7149;-61
2022/10/25 02:18:40;;;;;;;;;;;;;;;25.60;46.89;94543.00;4953731;28;7259;-61
2022/10/25 02:21:11;;;;;;;;;;;;;;;25.59;47.19;94569.78;4953485;28;7660;-61
2022/10/25 02:23:39;;;;;;;;;;;;;;;25.58;46.95;94571.03;4956457;28;7338;-61
2022/10/25 02:26:11;;;;;;;;;;;;;;;25.57;47.47;94555.75;4968205;28;7020;-61
2022/10/25 02:28:48;;;;;;;;;;;;;;;25.56;47.39;94576.28;4967369;28;7327;-60
2022/10/25 02:31:21;;;;;;;;;;;;;;;25.57;46.91;94560.50;4943137;28;7355;-61
2022/10/25 02:34:16;;;;;;;;;;;;;;;25.56;47.85;94559.75;4927571;28;9378;-61
2022/10/25 02:36:55;;;;;;;;;;;;;;;25.56;47.75;94557.00;4948135;28;7571;-60
2022/10/25 02:40:04;;;;;;;;;;;;;;;25.55;47.02;94552.78;4945920;28;9428;-61
2022/10/25 02:42:34;;;;;;;;;;;;;;;25.57;47.69;94549.50;4943594;28;7119;-61
2022/10/25 02:45:00;;;;;;;;;;;;;;;25.55;46.37;94546.50;4947613;28;7236;-61
2022/10/25 02:47:37;;;;;;;;;;;;;;;25.54;47.08;94556.75;4952652;28;9221;-61
2022/10/25 02:50:12;;;;;;;;;;;;;;;25.55;47.28;94546.50;5001190;28;9574;-61
2022/10/25 02:52:40;;;;;;;;;;;;;;;25.56;47.29;94540.47;5032925;28;7178;-61
2022/10/25 02:55:09;;;;;;;;;;;;;;;25.52;46.88;94528.97;5031477;28;9563;-61
2022/10/25 02:57:41;;;;;;;;;;;;;;;25.52;47.60;94530.97;5053258;28;7976;-61
2022/10/25 03:00:37;;;;;;;;;;;;;;;25.52;46.83;94528.97;5031052;28;7227;-61
2022/10/25 03:03:11;;;;;;;;;;;;;;;25.53;47.68;94533.25;5032339;28;7622;-60
2022/10/25 03:06:04;;;;;;;;;;;;;;;25.49;47.03;94524.47;5031413;28;7055;-61
2022/10/25 03:08:33;;;;;;;;;;;;;;;25.47;47.62;94524.25;5023186;28;7136;-61
2022/10/25 03:11:15;;;;;;;;;;;;;;;25.47;47.44;94529.75;5030450;28;7170;-61
2022/10/25 03:13:45;;;;;;;;;;;;;;;25.46;47.40;94533.78;5035610;28;7092;-61
2022/10/25 03:16:10;;;;;;;;;;;;;;;25.46;47.56;94531.00;5011784;28;7053;-61
2022/10/25 03:18:36;;;;;;;;;;;;;;;25.45;47.33;94545.31;5037725;28;7150;-61
2022/10/25 03:21:03;;;;;;;;;;;;;;;25.43;47.44;94543.03;5007013;28;7676;-61
2022/10/25 03:23:30;;;;;;;;;;;;;;;25.44;46.86;94541.78;5002717;28;9224;-61
2022/10/25 03:26:01;;;;;;;;;;;;;;;25.43;48.04;94540.28;5010786;28;7242;-61
2022/10/25 03:28:28;;;;;;;;;;;;;;;25.41;47.94;94540.75;5043890;28;8284;-61
2022/10/25 03:30:58;;;;;;;;;;;;;;;25.42;47.91;94549.81;5012593;28;7171;-61
2022/10/25 03:33:28;;;;;;;;;;;;;;;25.41;47.32;94538.00;5009730;28;7293;-61
2022/10/25 03:35:54;;;;;;;;;;;;;;;25.41;47.45;94529.75;5009782;28;6965;-61
2022/10/25 03:38:25;;;;;;;;;;;;;;;25.41;46.89;94537.25;5008125;28;7236;-61
2022/10/25 03:40:52;;;;;;;;;;;;;;;25.39;47.91;94534.25;5009456;28;7227;-60
2022/10/25 03:43:21;;;;;;;;;;;;;;;25.42;47.60;94533.28;5041231;28;7227;-60
2022/10/25 03:45:47;;;;;;;;;;;;;;;25.40;47.61;94536.50;5010555;28;6992;-60
2022/10/25 03:48:15;;;;;;;;;;;;;;;25.39;47.25;94545.28;5023507;28;7029;-61
2022/10/25 03:50:42;;;;;;;;;;;;;;;25.37;47.36;94532.03;5007232;28;6865;-61
2022/10/25 03:53:38;;;;;;;;;;;;;;;25.39;47.80;94532.25;5013553;28;9288;-61
2022/10/25 03:56:18;;;;;;;;;;;;;;;25.42;47.27;94544.31;4984662;28;9435;-61
2022/10/25 03:58:53;;;;;;;;;;;;;;;25.38;47.68;94533.50;4993424;28;7300;-61
2022/10/25 04:01:30;;;;;;;;;;;;;;;25.38;47.35;94539.00;5006286;28;7459;-61
2022/10/25 04:04:03;;;;;;;;;;;;;;;25.35;47.49;94542.03;4998488;28;7325;-61
2022/10/25 04:06:44;;;;;;;;;;;;;;;25.33;47.57;94528.78;5005876;28;7267;-61
2022/10/25 04:09:24;;;;;;;;;;;;;;;25.37;47.62;94531.25;5012101;28;7044;-61
2022/10/25 04:12:21;;;;;;;;;;;;;;;25.36;47.24;94530.50;5027227;28;7284;-61
2022/10/25 04:14:56;;;;;;;;;;;;;;;25.37;47.71;94525.75;4974205;28;7484;-61
2022/10/25 04:17:32;;;;;;;;;;;;;;;25.36;47.20;94524.25;4971612;28;9331;-61
2022/10/25 04:20:27;;;;;;;;;;;;;;;25.34;48.20;94540.53;4972922;28;9097;-61
2022/10/25 04:22:56;;;;;;;;;;;;;;;25.33;47.38;94537.03;4949266;28;7224;-61
2022/10/25 04:25:24;;;;;;;;;;;;;;;25.34;47.48;94535.03;4955075;28;6986;-60
2022/10/25 04:27:50;;;;;;;;;;;;;;;25.34;47.25;94533.03;4938750;28;7522;-61
2022/10/25 04:30:27;;;;;;;;;;;;;;;25.34;47.26;94537.78;4953380;28;7029;-60
2022/10/25 04:33:28;;;;;;;;;;;;;;;25.35;47.83;94536.53;4945451;28;7559;-61
2022/10/25 04:35:57;;;;;;;;;;;;;;;25.33;47.20;94541.78;4917036;29;7326;-60
2022/10/25 04:38:41;;;;;;;;;;;;;;;25.33;47.16;94548.06;4924040;29;7061;-61
2022/10/25 04:41:09;;;;;;;;;;;;;;;25.33;47.82;94550.06;4901359;29;9479;-61
2022/10/25 04:43:45;;;;;;;;;;;;;;;25.31;47.65;94561.59;4912310;29;7650;-61
2022/10/25 04:46:13;;;;;;;;;;;;;;;25.34;47.93;94568.06;4916543;29;7272;-61
2022/10/25 04:48:41;;;;;;;;;;;;;;;25.32;47.56;94560.31;4932659;29;7077;-60
2022/10/25 04:51:19;;;;;;;;;;;;;;;25.32;47.99;94552.06;4917450;29;6980;-60
2022/10/25 04:53:49;;;;;;;;;;;;;;;25.30;47.68;94549.06;4934409;29;7264;-61
2022/10/25 04:56:24;;;;;;;;;;;;;;;25.33;47.76;94555.56;4928136;29;7339;-61
2022/10/25 04:58:55;;;;;;;;;;;;;;;25.33;47.23;94539.03;4934765;28;7410;-60
2022/10/25 05:01:26;;;;;;;;;;;;;;;25.32;47.57;94538.28;4944052;28;9349;-60
2022/10/25 05:04:04;;;;;;;;;;;;;;;25.34;47.34;94535.03;4938138;28;7003;-60
2022/10/25 05:06:33;;;;;;;;;;;;;;;25.30;46.98;94534.53;4949822;28;7189;-61
2022/10/25 05:09:05;;;;;;;;;;;;;;;25.28;47.23;94545.31;4968516;28;9225;-61
2022/10/25 05:11:34;;;;;;;;;;;;;;;25.26;47.72;94537.56;4977292;28;7382;-60
2022/10/25 05:14:01;;;;;;;;;;;;;;;25.27;47.14;94535.56;5013242;28;8285;-61
2022/10/25 05:16:38;;;;;;;;;;;;;;;25.28;47.32;94537.03;5044225;28;7150;-61
2022/10/25 05:19:08;;;;;;;;;;;;;;;25.26;47.37;94532.06;5015494;28;9019;-60
2022/10/25 05:21:34;;;;;;;;;;;;;;;25.27;47.94;94535.56;5010813;28;7018;-61
2022/10/25 05:24:00;;;;;;;;;;;;;;;25.27;47.87;94530.06;5014845;28;9059;-60
2022/10/25 05:26:26;;;;;;;;;;;;;;;25.30;47.63;94529.03;5001182;28;8502;-60
2022/10/25 05:28:55;;;;;;;;;;;;;;;25.30;47.58;94535.28;5027828;28;8966;-61
2022/10/25 05:31:26;;;;;;;;;;;;;;;25.25;48.35;94540.81;5009991;28;7482;-61
2022/10/25 05:33:58;;;;;;;;;;;;;;;25.23;47.68;94551.56;5010299;28;7203;-60
2022/10/25 05:36:31;;;;;;;;;;;;;;;25.20;48.79;94547.09;5024770;28;7318;-61
2022/10/25 05:39:00;;;;;;;;;;;;;;;25.23;49.29;94548.81;5022256;28;9178;-60
2022/10/25 05:41:26;;;;;;;;;;;;;;;25.26;48.59;94542.31;5004675;28;9044;-61
2022/10/25 05:43:52;;;;;;;;;;;;;;;25.26;48.86;94542.31;5020900;28;7318;-61
2022/10/25 05:46:50;;;;;;;;;;;;;;;25.23;48.57;94546.81;5018575;28;9301;-60
2022/10/25 05:49:26;;;;;;;;;;;;;;;25.18;48.05;94546.84;4989938;28;7681;-61
2022/10/25 05:51:54;;;;;;;;;;;;;;;25.15;48.63;94542.34;5004006;28;7236;-61
2022/10/25 05:54:23;;;;;;;;;;;;;;;25.14;48.37;94555.34;4980668;28;6983;-60
2022/10/25 05:56:49;;;;;;;;;;;;;;;25.16;48.28;94550.09;4964870;28;9928;-61
2022/10/25 05:59:25;;;;;;;;;;;;;;;25.19;48.18;94556.59;4984967;28;8256;-62
2022/10/25 06:01:55;;;;;;;;;;;;;;;25.17;48.04;94559.09;4986497;28;9055;-62
2022/10/25 06:04:21;;;;;;;;;;;;;;;25.14;47.48;94562.88;4970233;28;9172;-60
2022/10/25 06:06:51;;;;;;;;;;;;;;;25.16;47.78;94565.88;4969526;28;9375;-62
2022/10/25 06:09:21;;;;;;;;;;;;;;;25.14;48.06;94568.38;4994265;28;6973;-61
2022/10/25 06:11:49;;;;;;;;;;;;;;;25.10;47.94;94563.09;4973901;28;7110;-61
2022/10/25 06:14:45;;;;;;;;;;;;;;;25.07;48.02;94569.63;4995185;28;7237;-62
2022/10/25 06:17:12;;;;;;;;;;;;;;;25.10;47.83;94573.38;4894540;29;7216;-61
2022/10/25 06:19:50;;;;;;;;;;;;;;;25.10;47.85;94573.38;4890675;29;6986;-61
2022/10/25 06:22:19;;;;;;;;;;;;;;;25.08;47.96;94575.88;4891876;29;9703;-61
2022/10/25 06:24:44;;;;;;;;;;;;;;;25.09;47.77;94577.38;4895898;29;7838;-61
2022/10/25 06:27:10;;;;;;;;;;;;;;;25.11;47.73;94585.88;4913278;29;7210;-61
2022/10/25 06:29:36;;;;;;;;;;;;;;;25.09;48.19;94582.88;4892281;29;9100;-61
2022/10/25 06:32:06;;;;;;;;;;;;;;;25.10;48.29;94596.13;4912746;29;9092;-61
2022/10/25 06:34:42;;;;;;;;;;;;;;;25.09;48.42;94585.63;4906177;29;9158;-61
2022/10/25 06:37:37;;;;;;;;;;;;;;;25.09;48.69;94591.91;4894977;29;7262;-61
2022/10/25 06:40:03;;;;;;;;;;;;;;;25.11;48.03;94588.63;4878306;29;7369;-61
2022/10/25 06:42:35;;;;;;;;;;;;;;;25.09;48.18;94593.91;4873273;29;8247;-61
2022/10/25 06:45:14;;;;;;;;;;;;;;;25.13;47.73;94588.88;4897193;29;7318;-61
2022/10/25 06:47:49;;;;;;;;;;;;;;;25.16;47.37;94591.41;4880372;29;7369;-61
2022/10/25 06:50:34;;;;;;;;;;;;;;;25.19;48.18;94598.63;4879444;29;9227;-61
2022/10/25 06:53:00;;;;;;;;;;;;;;;25.18;47.41;94599.16;4889978;28;9153;-61
2022/10/25 06:55:43;;;;;;;;;;;;;;;25.22;47.34;94607.88;4952878;28;7105;-61
2022/10/25 06:58:40;;;;;;;;;;;;;;;25.20;47.51;94605.66;4970586;28;6967;-61
2022/10/25 07:01:18;;;;;;;;;;;;;;;25.18;47.35;94607.41;4965188;28;7276;-61
2022/10/25 07:04:01;;;;;;;;;;;;;;;25.21;47.86;94614.63;4950137;28;6988;-61
2022/10/25 07:06:34;;;;;;;;;;;;;;;25.21;47.32;94611.88;4970598;28;8087;-61
2022/10/25 07:09:01;;;;;;;;;;;;;;;25.18;47.45;94613.66;4947395;28;7027;-61
2022/10/25 07:11:44;;;;;;;;;;;;;;;25.22;47.67;94627.16;4953102;28;7231;-61
2022/10/25 07:14:11;;;;;;;;;;;;;;;25.21;48.08;94622.91;4950997;28;9584;-61
2022/10/25 07:16:46;;;;;;;;;;;;;;;25.21;47.67;94626.41;4984823;28;7109;-61
2022/10/25 07:19:19;;;;;;;;;;;;;;;25.23;47.50;94625.88;5024430;28;7029;-61
2022/10/25 07:21:47;;;;;;;;;;;;;;;25.22;47.97;94621.66;5025030;28;7041;-61
2022/10/25 07:24:13;;;;;;;;;;;;;;;25.21;48.24;94618.16;5024446;28;9750;-61
2022/10/25 07:26:40;;;;;;;;;;;;;;;25.21;48.25;94617.38;5005652;28;6971;-61
2022/10/25 07:29:15;;;;;;;;;;;;;;;25.21;48.05;94622.91;5012821;28;7222;-61
2022/10/25 07:31:45;;;;;;;;;;;;;;;25.19;47.70;94622.66;5008589;28;7512;-61
2022/10/25 07:34:20;;;;;;;;;;;;;;;25.21;48.24;94622.91;5009103;28;7309;-61
2022/10/25 07:36:46;;;;;;;;;;;;;;;25.21;48.18;94620.91;5007235;28;7853;-61
2022/10/25 07:39:17;;;;;;;;;;;;;;;25.25;47.46;94624.13;5010856;28;9082;-61
2022/10/25 07:41:43;;;;;;;;;;;;;;;25.25;47.42;94623.41;5011141;28;7276;-61
2022/10/25 07:44:09;;;;;;;;;;;;;;;25.23;47.27;94625.88;5013666;28;8870;-61
2022/10/25 07:46:50;;;;;;;;;;;;;;;25.23;47.98;94625.88;5013875;28;7271;-61
2022/10/25 07:49:26;;;;;;;;;;;;;;;25.22;47.93;94625.16;5013958;28;8638;-61
2022/10/25 07:52:22;;;;;;;;;;;;;;;25.24;47.96;94628.16;5027578;28;7252;-61
2022/10/25 07:54:48;;;;;;;;;;;;;;;25.22;47.47;94624.41;4977516;28;7340;-61
2022/10/25 07:57:17;;;;;;;;;;;;;;;25.23;48.11;94625.88;4990241;28;7302;-61
2022/10/25 07:59:53;;;;;;;;;;;;;;;25.22;47.96;94627.16;4995917;28;7217;-61
2022/10/25 08:02:52;;;;;;;;;;;;;;;25.22;47.66;94632.66;4971007;28;7322;-61
2022/10/25 08:05:36;;;;;;;;;;;;;;;25.22;47.43;94630.66;4964084;28;7274;-61
2022/10/25 08:08:04;;;;;;;;;;;;;;;25.22;47.41;94622.41;4955629;28;9071;-61
2022/10/25 08:10:33;;;;;;;;;;;;;;;25.24;47.48;94622.66;4978495;28;7314;-61
2022/10/25 08:12:59;;;;;;;;;;;;;;;25.25;48.17;94629.66;4966351;28;7879;-61
2022/10/25 08:15:35;;;;;;;;;;;;;;;25.26;47.58;94627.66;4977803;28;7210;-61
2022/10/25 08:18:06;;;;;;;;;;;;;;;25.27;48.02;94623.66;4954257;28;7513;-61
2022/10/25 08:20:32;;;;;;;;;;;;;;;25.25;48.06;94624.13;4971549;28;7256;-61
2022/10/25 08:23:00;;;;;;;;;;;;;;;25.24;48.03;94621.91;4974113;28;7798;-61
2022/10/25 08:25:28;;;;;;;;;;;;;;;25.24;47.75;94624.66;4973659;28;7264;-61
2022/10/25 08:27:54;;;;;;;;;;;;;;;25.26;47.61;94624.91;4959175;28;7212;-61
2022/10/25 08:30:20;;;;;;;;;;;;;;;25.28;48.37;94611.38;4956845;28;10444;-61
2022/10/25 08:32:56;;;;;;;;;;;;;;;25.32;47.48;94611.88;4975694;28;9398;-61
2022/10/25 08:36:08;;;;;;;;;;;;;;;25.32;47.20;94620.13;4972416;28;7256;-61
2022/10/25 08:38:50;;;;;;;;;;;;;;;25.32;47.74;94620.13;4919512;29;7589;-61
2022/10/25 08:42:01;;;;;;;;;;;;;;;25.34;48.13;94612.09;4939587;28;7292;-61
2022/10/25 08:45:02;;;;;;;;;;;;;;;25.34;47.83;94609.34;4912237;29;6868;-61
2022/10/25 08:47:43;;;;;;;;;;;;;;;25.33;47.36;94614.13;4917284;29;7316;-61
2022/10/25 08:50:38;;;;;;;;;;;;;;;25.31;47.58;94613.88;4897841;29;9086;-60
2022/10/25 08:53:28;;;;;;;;;;;;;;;25.31;48.01;94610.38;4910138;29;7120;-61
2022/10/25 08:55:56;;;;;;;;;;;;;;;25.32;47.88;94603.59;4915100;29;8737;-60
2022/10/25 08:58:33;;;;;;;;;;;;;;;25.31;47.73;94599.38;4899507;29;7479;-61
2022/10/25 09:01:17;;;;;;;;;;;;;;;25.29;47.71;94596.38;4911524;29;7420;-61
2022/10/25 09:03:52;;;;;;;;;;;;;;;25.25;47.77;94596.59;4921872;29;7322;-61
2022/10/25 09:06:46;;;;;;;;;;;;;;;25.24;47.82;94597.13;4895786;29;7104;-61
2022/10/25 09:09:55;;;;;;;;;;;;;;;25.23;47.71;94590.09;4902862;29;7224;-60
2022/10/25 09:12:49;;;;;;;;;;;;;;;25.25;47.81;94590.38;4899776;29;7028;-61
2022/10/25 09:15:53;;;;;;;;;;;;;;;25.27;47.68;94596.84;4909546;28;9376;-60
2022/10/25 09:18:42;;;;;;;;;;;;;;;25.30;47.77;94592.34;4917621;28;7461;-61
2022/10/25 09:21:17;;;;;;;;;;;;;;;25.28;47.84;94594.84;4950458;28;7210;-61
2022/10/25 09:24:01;;;;;;;;;;;;;;;25.25;48.07;94596.59;4972305;28;7249;-61
2022/10/25 09:26:41;;;;;;;;;;;;;;;25.26;47.91;94594.63;4969095;28;9191;-61
2022/10/25 09:29:34;;;;;;;;;;;;;;;25.26;48.49;94587.13;4985229;28;7361;-61
2022/10/25 09:32:35;;;;;;;;;;;;;;;25.26;47.52;94591.88;4973612;28;7097;-61
2022/10/25 09:35:05;;;;;;;;;;;;;;;25.26;47.79;94592.63;4952972;28;7242;-61
2022/10/25 09:38:06;;;;;;;;;;;;;;;25.28;47.52;94594.84;4935933;28;9901;-60
2022/10/25 09:40:50;;;;;;;;;;;;;;;25.31;48.19;94591.09;4915318;29;7237;-61
2022/10/25 09:43:38;;;;;;;;;;;;;;;25.34;48.17;94587.31;4933031;28;7505;-60
2022/10/25 09:46:36;;;;;;;;;;;;;;;25.36;47.90;94591.09;4934100;29;7188;-60
2022/10/25 09:49:28;;;;;;;;;;;;;;;25.36;48.06;94587.56;4945651;28;7070;-61
2022/10/25 09:51:57;;;;;;;;;;;;;;;25.35;47.32;94588.84;4953366;28;9027;-61
2022/10/25 09:55:01;;;;;;;;;;;;;;;25.35;47.86;94597.09;4927009;29;8995;-61
2022/10/25 09:57:29;;;;;;;;;;;;;;;25.37;47.61;94597.34;4927612;28;7120;-61
2022/10/25 10:00:13;;;;;;;;;;;;;;;25.38;47.68;94599.59;4938368;28;7235;-61
2022/10/25 10:03:11;;;;;;;;;;;;;;;25.40;47.71;94604.59;4927154;29;7544;-61
2022/10/25 10:05:53;;;;;;;;;;;;;;;25.40;47.66;94597.06;4897223;29;9072;-61
2022/10/25 10:08:34;;;;;;;;;;;;;;;25.41;47.53;94597.84;4883210;29;9107;-61
2022/10/25 10:11:29;;;;;;;;;;;;;;;25.42;47.67;94599.38;4858834;29;7012;-61
2022/10/25 10:14:35;;;;;;;;;;;;;;;25.41;48.05;94598.59;4854579;29;7653;-60
2022/10/25 10:17:28;;;;;;;;;;;;;;;25.43;47.09;94606.38;4829104;29;7335;-60
2022/10/25 10:20:27;;;;;;;;;;;;;;;25.43;47.07;94593.34;4856345;29;7215;-60
2022/10/25 10:23:03;;;;;;;;;;;;;;;25.42;47.45;94596.63;4849976;29;7867;-60
2022/10/25 10:25:29;;;;;;;;;;;;;;;25.43;47.50;94595.34;4867925;29;7160;-60
2022/10/25 10:27:57;;;;;;;;;;;;;;;25.44;47.49;94591.34;4873036;29;7204;-60
2022/10/25 10:30:37;;;;;;;;;;;;;;;25.42;47.83;94588.38;4869508;29;9382;-60
2022/10/25 10:33:16;;;;;;;;;;;;;;;25.43;47.04;94596.09;4877060;29;9324;-60
2022/10/25 10:35:53;;;;;;;;;;;;;;;25.44;47.27;94591.34;4857773;29;8953;-60
2022/10/25 10:38:27;;;;;;;;;;;;;;;25.46;47.78;94588.84;4875495;29;7544;-60
2022/10/25 10:41:13;;;;;;;;;;;;;;;25.44;47.67;94588.59;4855071;29;8925;-60
2022/10/25 10:43:48;;;;;;;;;;;;;;;25.43;46.85;94587.84;4921185;29;7447;-60
2022/10/25 10:46:25;;;;;;;;;;;;;;;25.42;47.25;94577.34;4928436;28;6923;-60
2022/10/25 10:49:00;;;;;;;;;;;;;;;25.47;47.50;94573.06;4929795;29;7371;-60
2022/10/25 10:51:50;;;;;;;;;;;;;;;25.48;46.84;94580.81;4926768;29;7044;-60
2022/10/25 10:54:45;;;;;;;;;;;;;;;25.48;47.07;94580.06;5010070;28;8919;-60
2022/10/25 10:57:47;;;;;;;;;;;;;;;25.46;47.61;94572.31;5009856;28;7100;-60
2022/10/25 11:00:25;;;;;;;;;;;;;;;25.45;47.71;94583.84;4970279;28;6999;-60
2022/10/25 11:03:04;;;;;;;;;;;;;;;25.47;47.16;94579.31;4970082;28;7273;-60
2022/10/25 11:05:58;;;;;;;;;;;;;;;25.45;46.93;94570.09;4971852;28;9099;-60
2022/10/25 11:09:19;;;;;;;;;;;;;;;25.47;47.61;94571.06;4979683;28;7210;-60
2022/10/25 11:12:05;;;;;;;;;;;;;;;25.47;47.53;94573.06;4931363;29;7238;-60
2022/10/25 11:14:42;;;;;;;;;;;;;;;25.50;47.30;94567.31;4931140;29;8098;-60
2022/10/25 11:17:25;;;;;;;;;;;;;;;25.54;47.40;94564.28;4915923;29;7248;-60
2022/10/25 11:20:28;;;;;;;;;;;;;;;25.54;47.58;94570.53;4931627;29;7283;-60
2022/10/25 11:23:20;;;;;;;;;;;;;;;25.51;47.22;94565.31;4923858;29;7436;-60
2022/10/25 11:26:06;;;;;;;;;;;;;;;25.48;47.16;94566.31;4908014;29;7228;-60
2022/10/25 11:28:46;;;;;;;;;;;;;;;25.46;46.73;94566.81;4931355;29;6989;-60
2022/10/25 11:31:18;;;;;;;;;;;;;;;25.46;46.92;94566.06;4930769;29;7407;-60
2022/10/25 11:34:14;;;;;;;;;;;;;;;25.46;47.83;94566.81;4938563;29;9442;-60
2022/10/25 11:37:24;;;;;;;;;;;;;;;25.50;47.88;94553.53;4928664;29;8554;-60
2022/10/25 11:40:08;;;;;;;;;;;;;;;25.50;47.12;94564.53;4951406;28;7326;-60
2022/10/25 11:43:13;;;;;;;;;;;;;;;25.50;47.35;94545.25;4947665;28;7152;-60
2022/10/25 11:45:49;;;;;;;;;;;;;;;25.50;48.09;94545.25;4950905;28;8558;-60
2022/10/25 11:48:52;;;;;;;;;;;;;;;25.54;47.98;94551.25;5008366;28;9374;-60
2022/10/25 11:51:55;;;;;;;;;;;;;;;25.57;47.89;94544.75;4996190;28;10352;-60
2022/10/25 11:54:31;;;;;;;;;;;;;;;25.55;47.50;94547.25;5009904;28;7550;-60
2022/10/25 11:57:07;;;;;;;;;;;;;;;25.58;47.62;94537.97;5006734;28;7099;-60
2022/10/25 11:59:54;;;;;;;;;;;;;;;25.59;47.67;94536.72;5006339;28;9612;-60
2022/10/25 12:02:59;;;;;;;;;;;;;;;25.60;47.14;94532.69;5010408;28;8609;-60
2022/10/25 12:06:00;;;;;;;;;;;;;;;25.63;48.11;94539.19;5011540;28;6856;-60
2022/10/25 12:08:45;;;;;;;;;;;;;;;25.65;47.88;94539.44;5022419;28;9494;-60
2022/10/25 12:11:26;;;;;;;;;;;;;;;25.64;47.83;94530.44;5011462;28;7056;-61
2022/10/25 12:14:32;;;;;;;;;;;;;;;25.69;47.13;94534.41;5008014;28;7022;-60
2022/10/25 12:17:05;;;;;;;;;;;;;;;25.70;47.39;94528.41;5003400;28;8808;-60
2022/10/25 12:19:44;;;;;;;;;;;;;;;25.73;47.32;94530.13;4991171;28;7447;-60
2022/10/25 12:22:19;;;;;;;;;;;;;;;25.75;47.67;94521.38;4986761;28;7404;-60
2022/10/25 12:24:57;;;;;;;;;;;;;;;25.77;47.79;94524.38;4998017;28;7218;-60
2022/10/25 12:27:28;;;;;;;;;;;;;;;25.77;47.54;94525.13;5010878;28;7457;-60
2022/10/25 12:30:04;;;;;;;;;;;;;;;25.77;47.60;94514.09;5002195;28;7305;-60
2022/10/25 12:33:22;;;;;;;;;;;;;;;25.78;47.93;94512.84;4997981;28;8291;-60
2022/10/25 12:36:03;;;;;;;;;;;;;;;25.80;47.96;94518.59;5011903;28;7271;-60
2022/10/25 12:38:39;;;;;;;;;;;;;;;25.82;48.27;94516.06;4996901;28;7144;-60
2022/10/25 12:41:33;;;;;;;;;;;;;;;25.83;48.26;94514.06;5010380;28;7240;-60
2022/10/25 12:44:28;;;;;;;;;;;;;;;25.83;47.62;94517.56;4989752;28;7274;-60
2022/10/25 12:47:05;;;;;;;;;;;;;;;25.83;48.30;94512.06;4994914;28;7238;-60
2022/10/25 12:49:56;;;;;;;;;;;;;;;25.80;48.17;94498.53;4994894;28;8428;-60
2022/10/25 12:53:05;;;;;;;;;;;;;;;25.80;47.87;94496.53;5003034;28;8452;-60
2022/10/25 12:55:53;;;;;;;;;;;;;;;25.82;47.67;94498.78;5000455;28;6987;-60
2022/10/25 12:58:40;;;;;;;;;;;;;;;25.83;47.17;94492.78;5007770;28;7001;-60
2022/10/25 13:01:32;;;;;;;;;;;;;;;25.86;47.10;94500.00;5008078;28;7040;-60
2022/10/25 13:04:29;;;;;;;;;;;;;;;25.88;47.16;94497.50;4991013;28;8771;-60
2022/10/25 13:07:04;;;;;;;;;;;;;;;25.90;47.59;94483.22;5001791;28;7295;-60
2022/10/25 13:09:33;;;;;;;;;;;;;;;25.93;46.94;94485.69;4995429;28;9007;-60
2022/10/25 13:12:29;;;;;;;;;;;;;;;25.93;47.13;94485.69;5005549;28;10079;-60
2022/10/25 13:15:05;;;;;;;;;;;;;;;25.97;47.17;94488.91;5004365;28;7250;-60
2022/10/25 13:17:39;;;;;;;;;;;;;;;25.99;47.48;94486.41;5005317;28;6999;-60
2022/10/25 13:20:17;;;;;;;;;;;;;;;26.02;47.84;94482.63;5025448;28;7168;-60
2022/10/25 13:22:43;;;;;;;;;;;;;;;26.03;46.84;94486.16;5007598;28;7537;-60
2022/10/25 13:25:14;;;;;;;;;;;;;;;26.08;47.53;94485.34;5008053;28;7691;-60
2022/10/25 13:28:14;;;;;;;;;;;;;;;26.10;47.15;94475.31;5028366;28;8778;-60
2022/10/25 13:30:41;;;;;;;;;;;;;;;26.12;47.30;94483.84;5005280;28;7415;-60
2022/10/25 13:33:22;;;;;;;;;;;;;;;26.13;46.83;94477.06;5008089;28;7330;-59
2022/10/25 13:36:01;;;;;;;;;;;;;;;26.16;47.62;94481.53;5010198;28;8754;-60
2022/10/25 13:38:39;;;;;;;;;;;;;;;26.21;47.42;94473.78;5038686;28;7196;-60
2022/10/25 13:41:22;;;;;;;;;;;;;;;26.24;46.89;94475.47;5012307;28;10018;-60
2022/10/25 13:43:58;;;;;;;;;;;;;;;26.25;47.31;94468.72;5008692;28;7315;-60
2022/10/25 13:46:38;;;;;;;;;;;;;;;26.28;47.40;94468.44;5012371;28;7221;-60
2022/10/25 13:49:49;;;;;;;;;;;;;;;26.31;47.29;94458.38;5004366;28;7342;-60
2022/10/25 13:53:05;;;;;;;;;;;;;;;26.35;46.61;94467.13;5008015;28;8768;-60
2022/10/25 13:55:38;;;;;;;;;;;;;;;26.38;46.66;94461.31;5009636;28;7601;-60
2022/10/25 13:58:32;;;;;;;;;;;;;;;26.41;46.77;94459.53;5009224;28;8574;-60
2022/10/25 14:01:14;;;;;;;;;;;;;;;26.43;46.86;94468.06;5010711;28;7256;-60
2022/10/25 14:04:02;;;;;;;;;;;;;;;26.45;47.09;94457.25;5004214;28;7365;-60
2022/10/25 14:06:39;;;;;;;;;;;;;;;26.46;47.14;94456.00;5003127;28;9427;-60